Time;durP1;ratioP1;P1;durP2;ratioP2;P2;SDS_P1;SDS_P2;PMS_P1;PMS_P2;Temp;Humidity;BMP_temperature;BMP_pressure;BME280_temperature;BME280_humidity;BME280_pressure;Samples;Min_cycle;Max_cycle;Signal;HPM_P1;HPM_P2
2023/04/14 00:00:38;;;;;;;7.60;2.88;;;;;;;6.41;68.64;100609.63;3619700;39;20055;-67
2023/04/14 00:03:03;;;;;;;7.43;2.83;;;;;;;6.36;69.49;100617.00;3616219;39;20107;-67
2023/04/14 00:05:31;;;;;;;6.57;2.83;;;;;;;6.32;69.37;100616.28;3613045;39;20069;-67
2023/04/14 00:07:57;;;;;;;10.75;3.22;;;;;;;6.30;69.82;100609.28;3615515;39;20128;-67
2023/04/14 00:10:24;;;;;;;8.18;2.90;;;;;;;5.97;69.59;100554.75;3615187;39;20055;-68
2023/04/14 00:12:50;;;;;;;7.55;3.28;;;;;;;6.24;69.47;100603.28;3617975;39;20056;-67
2023/04/14 00:15:16;;;;;;;8.43;3.15;;;;;;;6.26;69.97;100609.41;3616899;39;20095;-67
2023/04/14 00:17:41;;;;;;;7.90;3.08;;;;;;;6.17;69.96;100596.50;3614808;39;20051;-67
2023/04/14 00:20:08;;;;;;;6.03;3.05;;;;;;;6.21;69.16;100619.44;3616588;39;20047;-67
2023/04/14 00:22:33;;;;;;;9.38;3.60;;;;;;;6.12;68.97;100595.88;3615107;39;20354;-67
2023/04/14 00:25:00;;;;;;;9.80;3.50;;;;;;;6.16;69.54;100605.47;3610097;39;20046;-67
2023/04/14 00:27:26;;;;;;;8.63;3.53;;;;;;;6.14;68.93;100618.00;3612244;39;20780;-67
2023/04/14 00:29:52;;;;;;;6.30;2.90;;;;;;;6.13;69.40;100610.94;3612819;39;20058;-68
2023/04/14 00:32:18;;;;;;;8.20;3.35;;;;;;;6.10;69.56;100611.09;3615689;39;20120;-66
2023/04/14 00:34:43;;;;;;;6.80;3.50;;;;;;;6.05;69.44;100607.75;3613657;39;20369;-67
2023/04/14 00:37:09;;;;;;;12.63;3.95;;;;;;;6.04;69.43;100614.03;3613518;39;20065;-66
2023/04/14 00:39:35;;;;;;;8.52;3.80;;;;;;;6.02;70.04;100610.56;3616151;39;20058;-66
2023/04/14 00:42:01;;;;;;;11.30;3.78;;;;;;;5.96;69.64;100603.72;3617584;39;20300;-66
2023/04/14 00:44:27;;;;;;;9.55;3.60;;;;;;;5.98;70.26;100622.31;3616560;39;20378;-66
2023/04/14 00:46:53;;;;;;;9.55;3.78;;;;;;;5.95;70.45;100611.78;3613044;39;20065;-66
2023/04/14 00:49:19;;;;;;;9.32;3.83;;;;;;;5.94;70.29;100615.41;3614749;39;20102;-66
2023/04/14 00:51:46;;;;;;;14.38;4.20;;;;;;;5.93;70.86;100616.31;3615632;39;20419;-66
2023/04/14 00:54:18;;;;;;;9.88;3.38;;;;;;;5.91;70.71;100616.38;3612656;39;20054;-66
2023/04/14 00:56:46;;;;;;;6.70;3.60;;;;;;;5.88;71.07;100623.66;3615918;39;20043;-67
2023/04/14 00:59:13;;;;;;;9.70;4.18;;;;;;;5.88;70.78;100631.66;3615649;39;20099;-67
2023/04/14 01:01:39;;;;;;;11.23;3.97;;;;;;;5.85;70.97;100626.47;3618001;39;20471;-67
2023/04/14 01:04:05;;;;;;;10.25;4.25;;;;;;;5.65;70.89;100604.22;3613996;39;20050;-67
2023/04/14 01:06:32;;;;;;;10.90;4.93;;;;;;;5.81;71.02;100631.06;3616611;39;20066;-66
2023/04/14 01:08:59;;;;;;;13.30;5.20;;;;;;;5.79;70.78;100628.47;3614915;39;20058;-66
2023/04/14 01:11:39;;;;;;;11.45;4.78;;;;;;;5.79;71.01;100627.59;3614554;39;22079;-67
2023/04/14 01:14:30;;;;;;;14.98;5.28;;;;;;;5.78;70.97;100637.41;3613134;39;20123;-67
2023/04/14 01:17:38;;;;;;;13.18;4.75;;;;;;;5.77;71.08;100638.34;3615144;39;20377;-67
2023/04/14 01:20:57;;;;;;;14.10;4.57;;;;;;;5.03;71.35;100519.94;3591469;39;20071;-67
2023/04/14 01:23:34;;;;;;;11.07;5.35;;;;;;;5.69;71.30;100626.28;3572500;40;20060;-67
2023/04/14 01:26:25;;;;;;;13.68;5.13;;;;;;;5.69;71.32;100632.47;3598083;39;20099;-66
2023/04/14 01:29:33;;;;;;;12.90;5.30;;;;;;;5.66;71.79;100632.63;3615923;39;20046;-67
2023/04/14 01:32:13;;;;;;;10.95;5.40;;;;;;;5.62;71.88;100628.38;3617745;39;20054;-67
2023/04/14 01:34:51;;;;;;;12.20;4.60;;;;;;;5.62;72.57;100631.03;3612951;39;20132;-67
2023/04/14 01:37:37;;;;;;;11.10;4.65;;;;;;;5.48;72.45;100623.63;3615133;39;20055;-67
2023/04/14 01:40:13;;;;;;;10.57;4.40;;;;;;;5.60;72.10;100646.22;3615118;39;20061;-66
2023/04/14 01:42:47;;;;;;;11.95;4.53;;;;;;;5.58;72.22;100640.97;3614360;39;20437;-67
2023/04/14 01:45:25;;;;;;;9.35;3.90;;;;;;;5.57;72.04;100638.34;3615645;39;20052;-68
2023/04/14 01:47:53;;;;;;;9.95;4.35;;;;;;;5.55;72.60;100648.22;3615647;39;20054;-67
2023/04/14 01:50:22;;;;;;;9.05;4.15;;;;;;;5.53;72.19;100648.28;3618029;39;20480;-67
2023/04/14 01:52:55;;;;;;;11.13;3.70;;;;;;;5.50;72.19;100650.22;3615073;39;20071;-67
2023/04/14 01:55:27;;;;;;;7.55;3.97;;;;;;;5.41;72.64;100642.63;3615787;39;20395;-67
2023/04/14 01:57:56;;;;;;;6.85;3.40;;;;;;;5.46;72.54;100651.31;3612908;39;20051;-67
2023/04/14 02:00:25;;;;;;;9.82;4.07;;;;;;;5.44;72.66;100648.69;3612503;39;20059;-67
2023/04/14 02:02:54;;;;;;;7.78;3.60;;;;;;;5.43;73.12;100656.78;3615668;39;20085;-67
2023/04/14 02:05:24;;;;;;;7.97;3.58;;;;;;;5.41;72.67;100642.63;3612333;39;20047;-67
2023/04/14 02:07:54;;;;;;;10.60;3.78;;;;;;;5.37;72.80;100646.38;3617781;39;20080;-67
2023/04/14 02:10:23;;;;;;;8.98;4.00;;;;;;;5.32;72.45;100652.75;3617595;39;20059;-67
2023/04/14 02:12:55;;;;;;;8.07;4.25;;;;;;;5.29;73.16;100652.88;3614503;39;20054;-67
2023/04/14 02:15:24;;;;;;;6.25;3.25;;;;;;;5.31;73.00;100651.03;3613201;39;20055;-67
2023/04/14 02:17:51;;;;;;;8.27;3.17;;;;;;;5.29;73.76;100650.22;3614447;39;20055;-67
2023/04/14 02:20:20;;;;;;;9.27;3.70;;;;;;;5.30;73.53;100656.44;3614496;39;20099;-67
2023/04/14 02:22:47;;;;;;;11.70;4.38;;;;;;;5.30;73.83;100662.63;3615167;39;20043;-67
2023/04/14 02:25:12;;;;;;;11.18;5.43;;;;;;;5.16;73.49;100645.47;3615658;39;20042;-67
2023/04/14 02:28:06;;;;;;;10.60;4.00;;;;;;;5.22;72.96;100662.06;3614894;39;20061;-67
2023/04/14 02:30:40;;;;;;;10.43;3.72;;;;;;;5.18;73.24;100665.81;3618665;39;20423;-67
2023/04/14 02:33:13;;;;;;;8.15;3.17;;;;;;;5.14;72.98;100661.53;3612515;39;20305;-67
2023/04/14 02:35:51;;;;;;;9.93;3.97;;;;;;;5.13;73.13;100670.44;3612914;39;20261;-67
2023/04/14 02:38:52;;;;;;;9.70;4.32;;;;;;;5.08;74.28;100661.78;3612009;39;20050;-67
2023/04/14 02:41:31;;;;;;;9.57;3.75;;;;;;;5.01;73.68;100654.97;3590645;39;20043;-67
2023/04/14 02:44:17;;;;;;;8.38;3.30;;;;;;;5.11;74.18;100680.31;3613431;39;20370;-67
2023/04/14 02:47:02;;;;;;;9.35;3.53;;;;;;;5.12;74.78;100676.72;3613706;39;20055;-68
2023/04/14 02:49:36;;;;;;;6.68;3.15;;;;;;;5.12;74.61;100677.56;3617525;39;20055;-67
2023/04/14 02:52:08;;;;;;;8.55;3.20;;;;;;;5.14;73.73;100677.53;3612580;39;20047;-67
2023/04/14 02:54:38;;;;;;;9.32;3.28;;;;;;;5.15;73.68;100673.94;3614071;39;20051;-67
2023/04/14 02:57:05;;;;;;;9.80;3.60;;;;;;;5.17;74.02;100672.06;3618829;39;20050;-66
2023/04/14 02:59:33;;;;;;;9.50;4.07;;;;;;;5.16;73.86;100678.31;3611466;39;20135;-67
2023/04/14 03:02:04;;;;;;;12.20;3.78;;;;;;;5.12;73.30;100674.91;3616749;39;20043;-67
2023/04/14 03:04:33;;;;;;;9.82;3.35;;;;;;;5.10;73.70;100681.22;3615295;39;20051;-67
2023/04/14 03:07:01;;;;;;;5.15;3.35;;;;;;;4.94;74.21;100664.16;3613358;39;20053;-68
2023/04/14 03:09:30;;;;;;;8.75;3.55;;;;;;;5.07;74.07;100684.91;3614478;39;20103;-66
2023/04/14 03:11:59;;;;;;;7.75;3.40;;;;;;;5.08;74.39;100688.44;3615740;39;20050;-67
2023/04/14 03:14:27;;;;;;;11.57;3.70;;;;;;;5.01;74.85;100679.84;3617765;39;20062;-67
2023/04/14 03:16:55;;;;;;;9.15;3.30;;;;;;;5.06;74.82;100690.28;3613182;39;20051;-66
2023/04/14 03:19:25;;;;;;;6.53;3.55;;;;;;;5.05;74.78;100684.09;3614214;39;20047;-67
2023/04/14 03:21:54;;;;;;;7.80;3.60;;;;;;;5.04;74.72;100684.16;3615435;39;20061;-67
2023/04/14 03:24:26;;;;;;;7.35;3.75;;;;;;;5.03;75.16;100685.09;3615188;39;20702;-67
2023/04/14 03:27:00;;;;;;;9.35;4.22;;;;;;;5.05;75.14;100688.56;3614063;39;20055;-67
2023/04/14 03:29:35;;;;;;;11.45;4.32;;;;;;;5.06;75.34;100684.97;3613389;39;20067;-67
2023/04/14 03:32:05;;;;;;;15.00;4.30;;;;;;;5.08;75.31;100689.31;3617454;39;20304;-67
2023/04/14 03:34:36;;;;;;;10.73;4.47;;;;;;;5.07;74.68;100684.91;3612974;39;20070;-67
2023/04/14 03:37:05;;;;;;;7.55;4.10;;;;;;;5.05;75.23;100672.59;3616602;39;20055;-67
2023/04/14 03:39:34;;;;;;;12.18;3.90;;;;;;;4.91;74.93;100648.28;3616706;39;20309;-67
2023/04/14 03:42:02;;;;;;;10.40;4.32;;;;;;;5.07;74.52;100682.25;3615733;39;20106;-67
2023/04/14 03:44:34;;;;;;;9.05;3.95;;;;;;;5.00;74.13;100679.88;3619354;39;20108;-66
2023/04/14 03:47:02;;;;;;;8.60;3.88;;;;;;;5.06;74.69;100687.63;3609278;39;20478;-66
2023/04/14 03:49:32;;;;;;;9.25;3.58;;;;;;;4.76;74.59;100644.50;3621288;39;20053;-66
2023/04/14 03:52:04;;;;;;;7.75;3.50;;;;;;;5.03;74.49;100685.09;3618294;39;20050;-66
2023/04/14 03:54:35;;;;;;;8.95;4.28;;;;;;;5.03;75.30;100685.09;3618113;39;20042;-67
2023/04/14 03:57:07;;;;;;;8.25;3.90;;;;;;;4.77;75.05;100648.88;3618506;39;20058;-67
2023/04/14 03:59:37;;;;;;;10.18;3.70;;;;;;;5.02;75.50;100689.56;3617850;39;20128;-67
2023/04/14 04:02:05;;;;;;;8.27;3.70;;;;;;;5.03;75.24;100695.75;3620596;39;20103;-66
2023/04/14 04:04:33;;;;;;;7.85;4.07;;;;;;;4.95;75.30;100690.75;3620838;39;20055;-67
2023/04/14 04:06:59;;;;;;;10.75;3.90;;;;;;;5.00;75.89;100701.19;3618359;39;20086;-67
2023/04/14 04:09:28;;;;;;;8.73;3.75;;;;;;;4.98;75.27;100695.94;3614774;39;20062;-67
2023/04/14 04:11:57;;;;;;;7.78;4.53;;;;;;;4.99;75.72;100697.66;3614861;39;20389;-67
2023/04/14 04:14:28;;;;;;;11.73;5.35;;;;;;;4.99;75.37;100699.47;3615648;39;20066;-67
2023/04/14 04:17:00;;;;;;;9.43;4.20;;;;;;;4.97;75.41;100688.84;3616905;39;20053;-67
2023/04/14 04:19:27;;;;;;;11.98;4.25;;;;;;;5.00;75.28;100699.38;3619001;39;20375;-68
2023/04/14 04:21:58;;;;;;;8.65;4.13;;;;;;;4.99;75.62;100695.00;3616586;39;20047;-68
2023/04/14 04:24:30;;;;;;;10.98;4.00;;;;;;;4.96;75.53;100688.94;3615747;39;20089;-67
2023/04/14 04:26:57;;;;;;;8.85;3.80;;;;;;;4.85;75.44;100676.94;3615475;39;20055;-66
2023/04/14 04:29:25;;;;;;;7.18;4.47;;;;;;;4.92;74.71;100690.00;3618823;39;20066;-67
2023/04/14 04:31:51;;;;;;;10.13;3.90;;;;;;;4.98;75.52;100703.03;3620452;39;20051;-67
2023/04/14 04:34:19;;;;;;;10.70;3.97;;;;;;;4.96;75.59;100702.25;3620895;39;20042;-67
2023/04/14 04:36:46;;;;;;;7.68;4.03;;;;;;;4.96;75.40;100707.59;3619550;39;20107;-66
2023/04/14 04:39:12;;;;;;;10.82;3.78;;;;;;;4.98;75.96;100713.69;3613262;39;20063;-67
2023/04/14 04:41:38;;;;;;;11.15;3.65;;;;;;;4.45;75.87;100623.56;3613048;39;20058;-67
2023/04/14 04:44:03;;;;;;;11.85;4.35;;;;;;;5.02;76.08;100710.00;3614327;39;20047;-67
2023/04/14 04:46:52;;;;;;;9.00;3.78;;;;;;;5.06;75.97;100701.81;3612854;39;20384;-67
2023/04/14 04:49:18;;;;;;;9.52;3.95;;;;;;;5.05;75.67;100699.22;3614639;39;20124;-67
2023/04/14 04:51:44;;;;;;;6.18;3.33;;;;;;;5.09;75.54;100708.81;3618379;39;20062;-67
2023/04/14 04:54:10;;;;;;;7.72;3.75;;;;;;;5.08;75.69;100705.28;3614212;39;20062;-68
2023/04/14 04:56:35;;;;;;;9.93;4.20;;;;;;;4.94;75.41;100685.47;3615347;39;20151;-67
2023/04/14 04:59:02;;;;;;;27.10;6.63;;;;;;;5.10;74.84;100707.88;3612638;39;20118;-67
2023/04/14 05:01:28;;;;;;;13.07;4.50;;;;;;;5.12;75.42;100701.56;3613287;39;20055;-68
2023/04/14 05:03:54;;;;;;;13.85;4.50;;;;;;;5.12;75.20;100696.22;3614519;39;20426;-67
2023/04/14 05:06:19;;;;;;;11.05;4.03;;;;;;;5.12;75.50;100695.38;3614177;39;20051;-67
2023/04/14 05:08:45;;;;;;;14.07;4.18;;;;;;;5.12;75.29;100696.22;3607025;39;20047;-67
2023/04/14 05:11:10;;;;;;;10.00;3.75;;;;;;;5.05;75.31;100688.56;3613482;39;20054;-67
2023/04/14 05:13:36;;;;;;;10.45;4.45;;;;;;;5.16;74.82;100706.75;3614644;39;20120;-67
2023/04/14 05:16:09;;;;;;;8.73;3.80;;;;;;;5.15;75.31;100716.56;3602530;39;20342;-67
2023/04/14 05:18:35;;;;;;;6.53;3.92;;;;;;;5.16;74.72;100707.63;3615444;39;20050;-67
2023/04/14 05:21:12;;;;;;;11.73;4.10;;;;;;;5.17;75.09;100704.03;3617261;39;20047;-67
2023/04/14 05:23:42;;;;;;;9.80;4.10;;;;;;;5.19;75.09;100707.50;3614265;39;20087;-67
2023/04/14 05:26:11;;;;;;;10.15;4.13;;;;;;;5.30;74.97;100705.25;3614159;39;20321;-67
2023/04/14 05:28:38;;;;;;;10.32;4.25;;;;;;;5.47;74.68;100698.34;3615299;39;20054;-67
2023/04/14 05:31:04;;;;;;;12.15;4.18;;;;;;;5.64;74.24;100693.13;3614156;39;20050;-67
2023/04/14 05:33:29;;;;;;;9.60;3.88;;;;;;;5.87;74.27;100701.94;3618100;39;20067;-67
2023/04/14 05:35:55;;;;;;;9.60;4.03;;;;;;;6.04;72.87;100697.63;3618163;39;20062;-68
2023/04/14 05:38:21;;;;;;;9.77;4.32;;;;;;;6.20;72.17;100700.44;3615745;39;20091;-68
2023/04/14 05:40:47;;;;;;;14.70;4.22;;;;;;;6.32;72.56;100701.69;3617670;39;20080;-67
2023/04/14 05:43:14;;;;;;;8.75;3.88;;;;;;;6.39;72.28;100696.94;3617893;39;20065;-68
2023/04/14 05:45:40;;;;;;;9.38;3.80;;;;;;;6.43;71.37;100693.19;3613261;39;20050;-67
2023/04/14 05:48:06;;;;;;;9.05;3.60;;;;;;;6.50;70.99;100697.28;3617378;39;20047;-67
2023/04/14 05:50:32;;;;;;;9.98;3.67;;;;;;;6.38;71.52;100668.53;3618085;39;20086;-68
2023/04/14 05:52:58;;;;;;;9.13;3.80;;;;;;;6.59;71.43;100702.19;3618976;39;20176;-67
2023/04/14 05:55:24;;;;;;;8.80;3.33;;;;;;;6.63;71.26;100698.47;3613750;39;20094;-67
2023/04/14 05:57:50;;;;;;;8.25;3.78;;;;;;;6.70;71.62;100691.88;3615063;39;20465;-67
2023/04/14 06:00:16;;;;;;;9.65;3.22;;;;;;;6.80;71.73;100697.66;3616330;39;20408;-67
2023/04/14 06:02:43;;;;;;;8.70;3.40;;;;;;;6.91;71.26;100700.69;3612502;39;20094;-67
2023/04/14 06:05:09;;;;;;;15.82;3.88;;;;;;;7.03;71.38;100706.34;3613552;39;20049;-66
2023/04/14 06:07:36;;;;;;;8.00;3.75;;;;;;;7.10;71.57;100694.41;3613035;39;20063;-67
2023/04/14 06:10:02;;;;;;;8.00;3.33;;;;;;;7.27;70.26;100693.59;3601552;39;20051;-67
2023/04/14 06:12:28;;;;;;;6.18;3.08;;;;;;;7.40;69.67;100702.72;3615411;39;20087;-66
2023/04/14 06:14:54;;;;;;;8.73;3.35;;;;;;;7.54;69.47;100702.00;3611681;39;20051;-67
2023/04/14 06:17:20;;;;;;;6.50;2.95;;;;;;;7.64;68.97;100704.13;3616708;39;20115;-67
2023/04/14 06:19:47;;;;;;;8.60;3.42;;;;;;;7.75;67.25;100716.09;3614553;39;20055;-66
2023/04/14 06:22:18;;;;;;;9.38;3.55;;;;;;;7.84;68.13;100704.91;3615982;39;20051;-67
2023/04/14 06:24:47;;;;;;;10.18;3.50;;;;;;;7.91;67.12;100698.28;3614329;39;20115;-67
2023/04/14 06:27:14;;;;;;;8.35;3.60;;;;;;;8.03;67.06;100703.00;3613753;39;20071;-67
2023/04/14 06:29:40;;;;;;;9.10;3.45;;;;;;;8.12;66.50;100699.81;3615286;39;20047;-67
2023/04/14 06:32:06;;;;;;;6.55;3.10;;;;;;;8.21;66.08;100689.53;3617597;39;20059;-67
2023/04/14 06:34:32;;;;;;;7.28;3.25;;;;;;;8.37;66.03;100691.31;3614560;39;20462;-67
2023/04/14 06:37:00;;;;;;;8.90;3.70;;;;;;;8.50;65.70;100677.25;3616051;39;20354;-67
2023/04/14 06:39:26;;;;;;;8.73;3.45;;;;;;;8.75;65.30;100684.78;3618423;39;20138;-67
2023/04/14 06:41:52;;;;;;;8.00;3.35;;;;;;;8.99;64.70;100682.53;3615401;39;20400;-67
2023/04/14 06:44:17;;;;;;;9.73;3.45;;;;;;;9.13;62.37;100671.00;3619113;39;20050;-67
2023/04/14 06:46:43;;;;;;;9.30;3.40;;;;;;;9.51;62.51;100677.66;3615096;39;20047;-68
2023/04/14 06:49:08;;;;;;;6.07;3.03;;;;;;;9.80;61.05;100676.84;3617110;39;20124;-67
2023/04/14 06:51:34;;;;;;;8.18;3.13;;;;;;;9.97;60.24;100682.91;3615306;39;20059;-68
2023/04/14 06:54:00;;;;;;;6.95;3.10;;;;;;;10.22;59.47;100681.41;3613641;39;20059;-67
2023/04/14 06:56:26;;;;;;;9.18;3.40;;;;;;;10.47;60.20;100672.69;3617122;39;20320;-67
2023/04/14 06:58:51;;;;;;;8.00;3.10;;;;;;;10.74;58.37;100677.22;3614896;39;20066;-68
2023/04/14 07:01:17;;;;;;;8.50;3.30;;;;;;;10.98;56.37;100681.00;3616921;39;20119;-67
2023/04/14 07:03:43;;;;;;;11.10;3.53;;;;;;;11.22;56.45;100673.13;3618720;39;20055;-67
2023/04/14 07:06:10;;;;;;;6.85;3.03;;;;;;;11.52;56.25;100672.91;3614434;39;20296;-68
2023/04/14 07:08:39;;;;;;;6.75;3.50;;;;;;;11.77;55.09;100668.53;3616094;39;20115;-68
2023/04/14 07:11:08;;;;;;;8.18;3.38;;;;;;;11.93;54.78;100668.34;3616813;39;20050;-68
2023/04/14 07:13:35;;;;;;;8.32;3.50;;;;;;;12.11;54.47;100667.03;3615231;39;20102;-67
2023/04/14 07:16:02;;;;;;;8.20;2.83;;;;;;;12.24;53.30;100667.91;3615117;39;20073;-68
2023/04/14 07:18:30;;;;;;;7.60;3.42;;;;;;;12.47;51.71;100668.09;3616687;39;20063;-69
2023/04/14 07:20:57;;;;;;;7.70;2.80;;;;;;;12.66;51.00;100663.06;3615527;39;20047;-68
2023/04/14 07:23:22;;;;;;;7.88;2.97;;;;;;;12.71;51.46;100655.47;3618187;39;20150;-68
2023/04/14 07:25:54;;;;;;;7.22;3.15;;;;;;;12.92;50.19;100665.69;3615888;39;20409;-67
2023/04/14 07:28:21;;;;;;;6.88;3.13;;;;;;;13.02;49.47;100669.41;3608434;39;20341;-68
2023/04/14 07:30:48;;;;;;;7.05;3.15;;;;;;;13.14;49.71;100668.50;3616675;39;20058;-68
2023/04/14 07:33:17;;;;;;;8.23;3.60;;;;;;;13.33;48.43;100651.81;3616708;39;20062;-68
2023/04/14 07:35:47;;;;;;;7.57;3.53;;;;;;;13.48;49.19;100638.97;3616140;39;20043;-69
2023/04/14 07:38:12;;;;;;;8.18;3.05;;;;;;;13.78;48.26;100651.06;3614436;39;20055;-69
2023/04/14 07:40:38;;;;;;;6.60;2.90;;;;;;;13.90;47.00;100645.56;3616824;39;20061;-66
2023/04/14 07:43:04;;;;;;;7.97;3.00;;;;;;;13.84;48.19;100640.66;3615869;39;20420;-66
2023/04/14 07:45:30;;;;;;;6.93;2.72;;;;;;;13.85;46.65;100647.75;3616995;39;20313;-67
2023/04/14 07:47:56;;;;;;;7.85;2.90;;;;;;;13.82;47.65;100644.44;3621370;39;20058;-67
2023/04/14 07:50:22;;;;;;;8.63;3.05;;;;;;;13.81;47.26;100637.31;3618170;39;20338;-67
2023/04/14 07:52:48;;;;;;;5.32;2.45;;;;;;;13.87;45.85;100644.94;3614481;39;20070;-67
2023/04/14 07:55:14;;;;;;;7.28;2.55;;;;;;;13.98;46.72;100644.09;3613832;39;20100;-67
2023/04/14 07:57:40;;;;;;;5.90;3.13;;;;;;;14.10;46.95;100645.81;3616544;39;20094;-68
2023/04/14 08:00:08;;;;;;;8.82;2.33;;;;;;;14.34;45.90;100649.28;3618578;39;20289;-67
2023/04/14 08:02:35;;;;;;;6.75;2.22;;;;;;;14.49;44.47;100641.75;3614707;39;20395;-67
2023/04/14 08:05:01;;;;;;;5.50;2.17;;;;;;;14.55;43.96;100646.69;3619118;39;20042;-67
2023/04/14 08:07:29;;;;;;;6.93;2.03;;;;;;;14.79;43.39;100640.28;3616294;39;20470;-67
2023/04/14 08:09:55;;;;;;;4.18;2.10;;;;;;;14.92;44.52;100637.41;3616746;39;20050;-67
2023/04/14 08:12:20;;;;;;;6.22;2.30;;;;;;;15.18;42.24;100643.34;3618184;39;20054;-68
2023/04/14 08:14:46;;;;;;;3.75;2.00;;;;;;;15.40;43.01;100642.41;3620442;39;20148;-67
2023/04/14 08:17:13;;;;;;;5.05;2.10;;;;;;;15.48;42.40;100648.88;3618667;39;20711;-67
2023/04/14 08:19:39;;;;;;;6.45;2.13;;;;;;;15.60;42.00;100649.66;3615467;39;20047;-67
2023/04/14 08:22:04;;;;;;;5.00;1.98;;;;;;;15.82;41.63;100637.88;3617106;39;20063;-67
2023/04/14 08:24:30;;;;;;;5.00;1.88;;;;;;;15.90;40.27;100635.34;3619842;39;20050;-67
2023/04/14 08:26:56;;;;;;;2.30;1.30;;;;;;;15.82;39.66;100635.16;3612815;39;20143;-69
2023/04/14 08:29:22;;;;;;;4.15;1.45;;;;;;;15.91;40.49;100631.66;3613767;39;20055;-66
2023/04/14 08:31:47;;;;;;;5.10;1.70;;;;;;;16.05;40.40;100632.28;3620091;39;20069;-67
2023/04/14 08:34:14;;;;;;;4.35;1.70;;;;;;;15.93;39.15;100613.41;3615280;39;20058;-67
2023/04/14 08:36:40;;;;;;;3.45;1.50;;;;;;;16.10;39.47;100640.88;3613439;39;20123;-67
2023/04/14 08:39:06;;;;;;;5.10;1.70;;;;;;;16.10;38.91;100633.59;3615999;39;20098;-67
2023/04/14 08:41:38;;;;;;;4.03;1.60;;;;;;;16.08;39.72;100640.16;3616927;39;20058;-67
2023/04/14 08:44:04;;;;;;;4.53;1.73;;;;;;;16.14;38.10;100643.19;3613645;39;20043;-67
2023/04/14 08:46:30;;;;;;;11.00;5.13;;;;;;;15.96;38.99;100612.28;3619133;39;20042;-67
2023/04/14 08:49:15;;;;;;;4.03;1.35;;;;;;;16.45;39.19;100640.47;3620979;39;20043;-67
2023/04/14 08:51:46;;;;;;;3.80;1.30;;;;;;;16.55;37.41;100640.50;3613881;39;20089;-67
2023/04/14 08:54:14;;;;;;;3.90;1.50;;;;;;;16.47;38.02;100649.34;3615427;39;20050;-68
2023/04/14 08:56:41;;;;;;;9.25;1.80;;;;;;;16.40;37.95;100645.47;3617277;39;20090;-68
2023/04/14 08:59:10;;;;;;;6.43;2.10;;;;;;;16.53;38.40;100656.06;3618497;39;20061;-67
2023/04/14 09:01:38;;;;;;;4.57;1.90;;;;;;;16.61;38.88;100642.66;3615184;39;20059;-68
2023/04/14 09:04:05;;;;;;;4.43;1.63;;;;;;;16.70;37.63;100647.25;3615567;39;20046;-66
2023/04/14 09:06:33;;;;;;;3.97;1.80;;;;;;;16.72;38.83;100647.97;3619882;39;20394;-67
2023/04/14 09:09:07;;;;;;;7.53;3.10;;;;;;;16.92;37.82;100638.03;3618635;39;20047;-68
2023/04/14 09:11:33;;;;;;;4.57;2.45;;;;;;;17.05;37.11;100637.78;3616208;39;20047;-67
2023/04/14 09:14:00;;;;;;;6.20;2.28;;;;;;;17.17;38.32;100642.94;3619198;39;20039;-67
2023/04/14 09:16:27;;;;;;;7.35;2.05;;;;;;;17.32;38.17;100634.38;3615132;39;20209;-67
2023/04/14 09:18:55;;;;;;;5.00;1.60;;;;;;;17.45;37.51;100634.94;3615958;39;20176;-67
2023/04/14 09:21:21;;;;;;;5.32;2.00;;;;;;;17.52;37.68;100622.47;3618466;39;20078;-68
2023/04/14 09:23:46;;;;;;;6.65;2.00;;;;;;;17.01;37.32;100538.59;3616726;39;20061;-68
2023/04/14 09:26:12;;;;;;;6.15;1.88;;;;;;;17.66;36.78;100629.31;3617049;39;20131;-68
2023/04/14 09:28:40;;;;;;;8.45;4.03;;;;;;;17.40;36.65;100626.34;3614088;39;20054;-68
2023/04/14 09:31:07;;;;;;;7.50;3.20;;;;;;;17.14;37.61;100620.63;3616644;39;20045;-68
2023/04/14 09:33:47;;;;;;;4.13;1.52;;;;;;;16.78;39.06;100631.16;3615334;39;20050;-69
2023/04/14 09:36:21;;;;;;;3.20;1.40;;;;;;;16.80;40.01;100618.28;3615978;39;20411;-67
2023/04/14 09:38:49;;;;;;;4.88;1.60;;;;;;;17.09;39.35;100617.47;3612775;39;20125;-68
2023/04/14 09:41:24;;;;;;;5.50;1.80;;;;;;;16.93;38.30;100618.03;3617082;39;20046;-69
2023/04/14 09:43:51;;;;;;;3.88;1.58;;;;;;;16.78;38.28;100619.44;3603535;39;20404;-69
2023/04/14 09:46:19;;;;;;;5.25;1.40;;;;;;;16.04;37.39;100493.13;3615665;39;20051;-68
2023/04/14 09:48:55;;;;;;;3.72;1.60;;;;;;;16.51;37.78;100609.22;3618517;39;20096;-69
2023/04/14 09:51:26;;;;;;;2.88;1.60;;;;;;;16.31;38.96;100611.88;3608822;39;20063;-67
2023/04/14 09:53:53;;;;;;;4.20;1.50;;;;;;;16.63;38.97;100597.25;3613077;39;20062;-68
2023/04/14 09:56:24;;;;;;;5.90;1.80;;;;;;;17.04;38.41;100592.63;3607469;39;20138;-69
2023/04/14 09:58:50;;;;;;;3.60;1.70;;;;;;;17.36;37.66;100595.88;3615588;39;20071;-68
2023/04/14 10:01:19;;;;;;;6.68;3.85;;;;;;;17.51;37.10;100592.75;3613831;39;20432;-68
2023/04/14 10:03:47;;;;;;;7.85;3.35;;;;;;;17.88;37.29;100597.38;3614086;39;20385;-69
2023/04/14 10:06:22;;;;;;;5.85;1.77;;;;;;;17.79;34.72;100591.84;3618476;39;20069;-68
2023/04/14 10:08:51;;;;;;;4.50;1.55;;;;;;;16.95;35.76;100502.00;3614781;39;20086;-69
2023/04/14 10:11:23;;;;;;;5.30;1.70;;;;;;;17.01;36.47;100506.84;3619098;39;20056;-68
2023/04/14 10:13:54;;;;;;;4.18;1.80;;;;;;;17.58;36.61;100574.84;3605490;39;20356;-68
2023/04/14 10:16:22;;;;;;;5.35;1.85;;;;;;;17.80;37.31;100573.66;3614094;39;20357;-69
2023/04/14 10:18:47;;;;;;;3.92;1.60;;;;;;;18.18;36.14;100569.94;3615823;39;20055;-68
2023/04/14 10:21:15;;;;;;;4.63;1.42;;;;;;;18.03;35.82;100575.00;3617834;39;20050;-68
2023/04/14 10:23:42;;;;;;;8.60;1.90;;;;;;;17.77;34.77;100566.66;3613455;39;20710;-68
2023/04/14 10:26:11;;;;;;;7.63;2.92;;;;;;;17.52;36.09;100564.53;3617173;39;20106;-68
2023/04/14 10:28:43;;;;;;;5.95;2.15;;;;;;;17.28;36.82;100563.13;3615177;39;20061;-68
2023/04/14 10:31:23;;;;;;;4.45;1.75;;;;;;;17.10;37.71;100564.88;3617785;39;20047;-68
2023/04/14 10:33:49;;;;;;;5.07;1.83;;;;;;;17.25;37.54;100566.13;3616444;39;20062;-69
2023/04/14 10:36:28;;;;;;;7.45;1.98;;;;;;;17.16;37.33;100562.44;3615977;39;20047;-68
2023/04/14 10:39:03;;;;;;;5.90;1.92;;;;;;;17.10;38.18;100560.31;3617372;39;20061;-69
2023/04/14 10:41:50;;;;;;;5.28;1.88;;;;;;;17.21;37.68;100556.56;3617864;39;20067;-68
2023/04/14 10:44:31;;;;;;;5.03;1.70;;;;;;;16.88;36.78;100479.16;3618134;39;20064;-69
2023/04/14 10:47:00;;;;;;;8.65;1.75;;;;;;;17.63;36.40;100556.22;3608583;39;20051;-69
2023/04/14 10:49:34;;;;;;;5.00;1.70;;;;;;;17.52;36.38;100540.09;3617511;39;20047;-69
2023/04/14 10:52:26;;;;;;;4.40;1.75;;;;;;;17.33;36.19;100549.13;3605161;39;20095;-69
2023/04/14 10:55:06;;;;;;;8.55;1.80;;;;;;;17.17;36.39;100533.44;3611675;39;20058;-69
2023/04/14 10:57:39;;;;;;;6.18;1.77;;;;;;;17.38;38.74;100479.78;3612773;39;20297;-67
2023/04/14 11:00:26;;;;;;;6.07;1.58;;;;;;;18.23;34.67;100537.69;3612120;39;20051;-69
2023/04/14 11:03:09;;;;;;;4.93;1.70;;;;;;;17.88;35.17;100450.56;3612009;39;20043;-68
2023/04/14 11:05:41;;;;;;;4.97;1.60;;;;;;;18.21;34.74;100553.31;3615240;39;20133;-67
2023/04/14 11:08:34;;;;;;;5.68;1.70;;;;;;;18.06;34.90;100531.19;3613791;39;20051;-67
2023/04/14 11:11:05;;;;;;;4.68;1.73;;;;;;;18.31;33.45;100518.75;3613983;39;20139;-68
2023/04/14 11:13:33;;;;;;;3.70;1.42;;;;;;;17.57;34.34;100429.03;3617926;39;20055;-66
2023/04/14 11:16:05;;;;;;;5.47;1.48;;;;;;;17.92;33.62;100528.09;3616726;39;20042;-67
2023/04/14 11:18:36;;;;;;;5.00;1.70;;;;;;;17.77;34.35;100530.47;3611291;39;20070;-66
2023/04/14 11:21:05;;;;;;;4.70;1.90;;;;;;;17.36;34.26;100435.56;3617378;39;20069;-67
2023/04/14 11:23:33;;;;;;;5.72;1.90;;;;;;;17.87;33.43;100525.84;3619021;39;20460;-67
2023/04/14 11:25:59;;;;;;;4.05;1.60;;;;;;;17.69;34.14;100524.88;3618655;39;20616;-67
2023/04/14 11:28:35;;;;;;;3.05;1.70;;;;;;;17.48;35.05;100525.09;3619236;39;20438;-66
2023/04/14 11:31:04;;;;;;;4.95;1.50;;;;;;;17.29;34.79;100525.97;3620235;39;20059;-67
2023/04/14 11:33:36;;;;;;;3.97;1.70;;;;;;;17.03;34.25;100517.56;3617146;39;20120;-67
2023/04/14 11:36:06;;;;;;;7.43;1.88;;;;;;;16.97;34.60;100526.28;3617186;39;20043;-67
2023/04/14 11:38:34;;;;;;;6.55;1.73;;;;;;;16.90;34.73;100521.44;3616589;39;20047;-67
2023/04/14 11:41:01;;;;;;;4.40;1.52;;;;;;;16.93;34.90;100523.84;3619438;39;20064;-67